createdAt,value
2024-04-09T00:00:39.360Z,20.42
2024-04-09T00:01:39.422Z,20.42
2024-04-09T00:02:39.485Z,20.48
2024-04-09T00:03:39.839Z,20.43
2024-04-09T00:04:39.674Z,20.38
2024-04-09T00:05:39.627Z,20.43
2024-04-09T00:06:39.739Z,20.48
2024-04-09T00:07:39.756Z,20.47
2024-04-09T00:08:39.816Z,20.50
2024-04-09T00:09:40.044Z,20.42
2024-04-09T00:10:39.892Z,20.43
2024-04-09T00:11:39.951Z,20.46
2024-04-09T00:12:40.076Z,20.46
2024-04-09T00:13:39.900Z,20.49
2024-04-09T00:14:39.931Z,20.49
2024-04-09T00:15:39.948Z,20.50
2024-04-09T00:16:39.903Z,20.50
2024-04-09T00:17:39.978Z,20.45
2024-04-09T00:18:40.029Z,20.47
2024-04-09T00:19:39.970Z,20.48
2024-04-09T00:20:39.971Z,20.47
2024-04-09T00:21:40.106Z,20.43
2024-04-09T00:22:39.976Z,20.48
2024-04-09T00:23:39.973Z,20.49
2024-04-09T00:24:40.009Z,20.53
2024-04-09T00:25:39.993Z,20.51
2024-04-09T00:26:39.988Z,20.51
2024-04-09T00:27:42.859Z,20.50
2024-04-09T00:28:39.993Z,20.48
2024-04-09T00:29:39.987Z,20.50
2024-04-09T00:30:39.989Z,20.51
2024-04-09T00:31:39.994Z,20.49
2024-04-09T00:32:40.110Z,20.50
2024-04-09T00:33:40.071Z,20.49
2024-04-09T00:34:40.074Z,20.49
2024-04-09T00:35:40.010Z,20.50
2024-04-09T00:36:40.071Z,20.51
2024-04-09T00:37:40.103Z,20.48
2024-04-09T00:38:40.181Z,20.51
2024-04-09T00:39:40.323Z,20.48
2024-04-09T00:40:40.284Z,20.48
2024-04-09T00:41:40.342Z,20.53
2024-04-09T00:42:40.428Z,20.53
2024-04-09T00:43:40.448Z,20.53
2024-04-09T00:44:40.457Z,20.47
2024-04-09T00:45:40.506Z,20.51
2024-04-09T00:46:40.452Z,20.51
2024-04-09T00:47:40.568Z,20.53
2024-04-09T00:48:40.645Z,20.54
2024-04-09T00:49:40.458Z,20.51
2024-04-09T00:50:40.455Z,20.51
2024-04-09T00:51:40.575Z,20.51
2024-04-09T00:52:40.547Z,20.56
2024-04-09T00:53:40.629Z,20.53
2024-04-09T00:54:40.676Z,20.53
2024-04-09T00:55:40.703Z,20.53
2024-04-09T00:56:40.769Z,20.54
2024-04-09T00:57:40.893Z,20.50
2024-04-09T00:58:40.961Z,20.59
2024-04-09T00:59:40.988Z,20.56
2024-04-09T01:00:41.217Z,20.55
2024-04-09T01:01:41.164Z,20.58
2024-04-09T01:02:41.285Z,20.53
2024-04-09T01:03:41.383Z,20.55
2024-04-09T01:04:41.739Z,20.59
2024-04-09T01:05:41.427Z,20.58
2024-04-09T01:06:41.520Z,20.56
2024-04-09T01:07:41.560Z,20.53
2024-04-09T01:08:41.656Z,20.53
2024-04-09T01:09:41.704Z,20.55
2024-04-09T01:10:41.725Z,20.56
2024-04-09T01:11:41.673Z,20.51
2024-04-09T01:12:41.656Z,20.61
2024-04-09T01:13:41.661Z,20.60
2024-04-09T01:14:41.680Z,20.61
2024-04-09T01:15:41.759Z,20.61
2024-04-09T01:16:41.660Z,20.58
2024-04-09T01:17:41.804Z,20.53
2024-04-09T01:18:41.763Z,20.58
2024-04-09T01:19:41.752Z,20.59
2024-04-09T01:20:41.746Z,20.60
2024-04-09T01:21:41.811Z,20.59
2024-04-09T01:22:41.750Z,20.63
2024-04-09T01:23:41.714Z,20.60
2024-04-09T01:24:41.727Z,20.61
2024-04-09T01:25:41.736Z,20.59
2024-04-09T01:26:41.805Z,20.59
2024-04-09T01:27:41.893Z,20.58
2024-04-09T01:28:41.935Z,20.61
2024-04-09T01:29:41.975Z,20.59
2024-04-09T01:30:42.219Z,20.61
2024-04-09T01:31:42.114Z,20.63
2024-04-09T01:32:42.454Z,20.61
2024-04-09T01:33:42.407Z,20.63
2024-04-09T01:34:42.362Z,20.63
2024-04-09T01:35:42.400Z,20.64
2024-04-09T01:36:42.480Z,20.61
2024-04-09T01:37:42.537Z,20.64
2024-04-09T01:38:42.616Z,20.59
2024-04-09T01:39:42.675Z,20.58
2024-04-09T01:40:42.746Z,20.63
2024-04-09T01:41:42.816Z,20.55
2024-04-09T01:42:42.950Z,20.66
2024-04-09T01:43:42.939Z,20.61
2024-04-09T01:44:42.996Z,20.64
2024-04-09T01:45:44.092Z,20.66
2024-04-09T01:46:43.159Z,20.66
2024-04-09T01:47:43.378Z,20.64
2024-04-09T01:48:43.294Z,20.66
2024-04-09T01:49:43.344Z,20.67
2024-04-09T01:50:43.407Z,20.59
2024-04-09T01:51:43.541Z,20.67
2024-04-09T01:52:43.548Z,20.67
2024-04-09T01:53:43.626Z,20.64
2024-04-09T01:54:43.687Z,20.59
2024-04-09T01:55:43.750Z,20.67
2024-04-09T01:56:43.807Z,20.59
2024-04-09T01:57:43.871Z,20.66
2024-04-09T01:58:43.924Z,20.69
2024-04-09T01:59:43.999Z,20.71
2024-04-09T02:00:44.096Z,20.63
2024-04-09T02:01:44.142Z,20.63
2024-04-09T02:02:44.276Z,20.69
2024-04-09T02:03:44.321Z,20.69
2024-04-09T02:04:44.462Z,20.66
2024-04-09T02:05:44.383Z,20.68
2024-04-09T02:06:44.485Z,20.69
2024-04-09T02:07:44.490Z,20.63
2024-04-09T02:08:44.581Z,20.64
2024-04-09T02:09:44.679Z,20.71
2024-04-09T02:10:44.684Z,20.69
2024-04-09T02:11:44.733Z,20.66
2024-04-09T02:12:44.939Z,20.74
2024-04-09T02:13:44.770Z,20.67
2024-04-09T02:14:44.734Z,20.66
2024-04-09T02:15:44.771Z,20.72
2024-04-09T02:16:44.822Z,20.63
2024-04-09T02:17:44.843Z,20.71
2024-04-09T02:18:44.777Z,20.64
2024-04-09T02:19:44.753Z,20.69
2024-04-09T02:20:44.739Z,20.69
2024-04-09T02:21:44.773Z,20.71
2024-04-09T02:22:44.740Z,20.71
2024-04-09T02:23:44.751Z,20.66
2024-04-09T02:24:44.759Z,20.67
2024-04-09T02:25:44.767Z,20.69
2024-04-09T02:26:44.742Z,20.67
2024-04-09T02:27:44.774Z,20.64
2024-04-09T02:28:44.843Z,20.67
2024-04-09T02:29:44.803Z,20.71
2024-04-09T02:30:44.828Z,20.68
2024-04-09T02:31:44.845Z,20.71
2024-04-09T02:32:44.808Z,20.69
2024-04-09T02:33:44.960Z,20.67
2024-04-09T02:34:44.871Z,20.71
2024-04-09T02:35:44.959Z,20.76
2024-04-09T02:36:45.116Z,20.69
2024-04-09T02:37:45.105Z,20.71
2024-04-09T02:38:45.207Z,20.73
2024-04-09T02:39:45.251Z,20.74
2024-04-09T02:40:45.275Z,20.71
2024-04-09T02:41:45.328Z,20.69
2024-04-09T02:42:45.546Z,20.71
2024-04-09T02:43:45.447Z,20.71
2024-04-09T02:44:45.532Z,20.76
2024-04-09T02:45:45.614Z,20.79
2024-04-09T02:46:45.648Z,20.77
2024-04-09T02:47:45.639Z,20.73
2024-04-09T02:48:45.819Z,20.72
2024-04-09T02:49:45.614Z,20.76
2024-04-09T02:50:45.590Z,20.76
2024-04-09T02:51:45.663Z,20.69
2024-04-09T02:52:45.609Z,20.74
2024-04-09T02:53:45.611Z,20.79
2024-04-09T02:54:45.767Z,20.72
2024-04-09T02:55:45.747Z,20.76
2024-04-09T02:56:45.833Z,20.76
2024-04-09T02:57:45.970Z,20.81
2024-04-09T02:58:45.917Z,20.79
2024-04-09T02:59:45.900Z,20.77
2024-04-09T03:00:46.030Z,20.71
2024-04-09T03:01:45.897Z,20.82
2024-04-09T03:02:45.917Z,20.74
2024-04-09T03:03:46.072Z,20.74
2024-04-09T03:04:45.950Z,20.77
2024-04-09T03:05:45.951Z,20.71
2024-04-09T03:06:46.056Z,20.79
2024-04-09T03:07:46.114Z,20.76
2024-04-09T03:08:46.149Z,20.76
2024-04-09T03:09:46.285Z,20.77
2024-04-09T03:10:46.375Z,20.77
2024-04-09T03:11:46.359Z,20.77
2024-04-09T03:12:46.550Z,20.76
2024-04-09T03:13:46.536Z,20.79
2024-04-09T03:14:46.574Z,20.77
2024-04-09T03:15:46.767Z,20.81
2024-04-09T03:16:46.714Z,20.79
2024-04-09T03:17:46.791Z,20.84
2024-04-09T03:18:46.926Z,20.81
2024-04-09T03:19:50.241Z,20.87
2024-04-09T03:20:46.825Z,20.87
2024-04-09T03:21:46.940Z,21.02
2024-04-09T03:22:46.834Z,21.01
2024-04-09T03:23:46.834Z,20.98
2024-04-09T03:24:46.911Z,21.01
2024-04-09T03:25:46.852Z,21.11
2024-04-09T03:26:46.848Z,21.19
2024-04-09T03:27:46.900Z,21.20
2024-04-09T03:28:46.865Z,21.31
2024-04-09T03:29:46.851Z,21.27
2024-04-09T03:30:46.981Z,21.39
2024-04-09T03:31:46.881Z,21.42
2024-04-09T03:32:46.979Z,21.46
2024-04-09T03:33:47.032Z,21.50
2024-04-09T03:34:46.874Z,21.52
2024-04-09T03:35:46.850Z,21.57
2024-04-09T03:36:46.909Z,21.57
2024-04-09T03:37:46.867Z,21.68
2024-04-09T03:38:46.995Z,21.75
2024-04-09T03:39:46.918Z,21.78
2024-04-09T03:40:46.935Z,21.77
2024-04-09T03:41:46.909Z,21.79
2024-04-09T03:42:46.881Z,21.84
2024-04-09T03:43:46.905Z,21.92
2024-04-09T03:44:46.882Z,21.91
2024-04-09T03:45:46.872Z,21.95
2024-04-09T03:46:46.863Z,21.97
2024-04-09T03:47:46.938Z,21.97
2024-04-09T03:48:47.293Z,22.10
2024-04-09T03:49:46.915Z,22.07
2024-04-09T03:50:46.893Z,22.15
2024-04-09T03:51:47.888Z,22.13
2024-04-09T03:52:46.898Z,22.13
2024-04-09T03:53:46.877Z,22.16
2024-04-09T03:54:46.915Z,22.18
2024-04-09T03:55:46.886Z,22.23
2024-04-09T03:56:46.890Z,22.24
2024-04-09T03:57:46.935Z,22.25
2024-04-09T03:58:46.950Z,22.25
2024-04-09T03:59:46.879Z,22.29
2024-04-09T04:00:46.978Z,22.29
2024-04-09T04:01:46.962Z,22.32
2024-04-09T04:02:46.967Z,22.35
2024-04-09T04:03:47.435Z,22.30
2024-04-09T04:04:47.001Z,22.38
2024-04-09T04:05:46.985Z,22.41
2024-04-09T04:06:47.082Z,22.38
2024-04-09T04:07:47.107Z,22.43
2024-04-09T04:08:47.176Z,22.43
2024-04-09T04:09:47.257Z,22.39
2024-04-09T04:10:47.279Z,22.43
2024-04-09T04:11:47.359Z,22.44
2024-04-09T04:12:47.401Z,22.49
2024-04-09T04:13:47.457Z,22.54
2024-04-09T04:14:47.517Z,22.45
2024-04-09T04:15:47.604Z,22.45
2024-04-09T04:16:47.712Z,22.49
2024-04-09T04:17:47.706Z,22.45
2024-04-09T04:18:48.474Z,22.53
2024-04-09T04:19:47.830Z,22.52
2024-04-09T04:20:47.840Z,22.50
2024-04-09T04:21:47.927Z,22.50
2024-04-09T04:22:47.832Z,22.55
2024-04-09T04:23:47.897Z,22.51
2024-04-09T04:24:47.906Z,22.52
2024-04-09T04:25:47.831Z,22.55
2024-04-09T04:26:47.845Z,22.55
2024-04-09T04:27:47.831Z,22.56
2024-04-09T04:28:47.882Z,22.58
2024-04-09T04:29:47.847Z,22.61
2024-04-09T04:30:47.886Z,22.62
2024-04-09T04:31:47.846Z,22.63
2024-04-09T04:32:47.966Z,22.66
2024-04-09T04:33:55.496Z,22.65
2024-04-09T04:34:55.241Z,22.71
2024-04-09T04:35:55.232Z,22.68
2024-04-09T04:36:55.286Z,22.70
2024-04-09T04:37:55.246Z,22.69
2024-04-09T04:38:55.238Z,22.72
2024-04-09T04:39:55.254Z,22.77
2024-04-09T04:40:55.241Z,22.78
2024-04-09T04:41:55.239Z,22.75
2024-04-09T04:42:55.248Z,22.73
2024-04-09T04:43:55.856Z,22.77
2024-04-09T04:44:55.317Z,22.73
2024-04-09T04:45:55.371Z,22.75
2024-04-09T04:46:56.781Z,22.83
2024-04-09T04:47:55.654Z,22.80
2024-04-09T04:48:55.778Z,22.80
2024-04-09T04:49:55.751Z,22.83
2024-04-09T04:50:55.793Z,22.75
2024-04-09T04:51:55.813Z,22.80
2024-04-09T04:52:55.817Z,22.80
2024-04-09T04:53:55.843Z,22.76
2024-04-09T04:54:57.804Z,22.80
2024-04-09T04:55:55.831Z,22.83
2024-04-09T04:56:55.836Z,22.83
2024-04-09T04:57:55.834Z,22.86
2024-04-09T04:58:55.823Z,22.88
2024-04-09T04:59:55.827Z,22.84
2024-04-09T05:00:55.889Z,22.81
2024-04-09T05:01:55.836Z,22.84
2024-04-09T05:02:55.970Z,22.79
2024-04-09T05:03:55.995Z,22.86
2024-04-09T05:04:55.837Z,22.84
2024-04-09T05:05:55.890Z,22.95
2024-04-09T05:06:55.878Z,23.07
2024-04-09T05:07:55.838Z,23.14
2024-04-09T05:08:55.844Z,23.11
2024-04-09T05:09:55.841Z,23.08
2024-04-09T05:10:55.893Z,23.13
2024-04-09T05:11:56.007Z,23.05
2024-04-09T05:12:55.933Z,23.08
2024-04-09T05:13:55.889Z,23.08
2024-04-09T05:14:55.891Z,23.06
2024-04-09T05:15:55.945Z,23.06
2024-04-09T05:16:55.856Z,23.08
2024-04-09T05:17:55.969Z,23.08
2024-04-09T05:18:55.993Z,23.08
2024-04-09T05:19:55.857Z,23.03
2024-04-09T05:20:55.853Z,22.98
2024-04-09T05:21:55.850Z,23.05
2024-04-09T05:22:55.857Z,23.02
2024-04-09T05:23:55.871Z,23.00
2024-04-09T05:24:55.893Z,23.06
2024-04-09T05:25:55.870Z,23.01
2024-04-09T05:26:55.886Z,23.04
2024-04-09T05:27:56.079Z,22.96
2024-04-09T05:28:55.884Z,23.01
2024-04-09T05:29:55.872Z,23.08
2024-04-09T05:30:55.981Z,23.01
2024-04-09T05:31:56.035Z,22.99
2024-04-09T05:32:57.014Z,23.01
2024-04-09T05:33:56.009Z,23.06
2024-04-09T05:34:55.921Z,23.01
2024-04-09T05:35:55.928Z,23.03
2024-04-09T05:36:55.959Z,22.95
2024-04-09T05:37:56.008Z,22.94
2024-04-09T05:38:56.011Z,22.96
2024-04-09T05:39:56.043Z,22.93
2024-04-09T05:40:56.082Z,22.98
2024-04-09T05:41:56.033Z,22.96
2024-04-09T05:42:56.055Z,22.94
2024-04-09T05:43:56.092Z,22.96
2024-04-09T05:44:56.053Z,22.93
2024-04-09T05:45:56.130Z,22.98
2024-04-09T05:46:56.075Z,22.94
2024-04-09T05:47:56.251Z,22.93
2024-04-09T05:48:56.244Z,22.99
2024-04-09T05:49:56.075Z,22.96
2024-04-09T05:50:56.077Z,22.96
2024-04-09T05:51:56.073Z,22.96
2024-04-09T05:52:56.087Z,22.98
2024-04-09T05:53:56.099Z,22.99
2024-04-09T05:54:56.072Z,23.03
2024-04-09T05:55:56.129Z,23.01
2024-04-09T05:56:56.130Z,22.96
2024-04-09T05:57:56.078Z,22.93
2024-04-09T05:58:56.092Z,22.93
2024-04-09T05:59:56.107Z,22.96
2024-04-09T06:00:56.192Z,22.93
2024-04-09T06:01:56.154Z,22.88
2024-04-09T06:02:56.139Z,22.93
2024-04-09T06:03:56.229Z,22.90
2024-04-09T06:04:56.101Z,22.87
2024-04-09T06:05:56.122Z,22.88
2024-04-09T06:06:56.090Z,22.92
2024-04-09T06:07:56.125Z,22.88
2024-04-09T06:08:56.133Z,22.87
2024-04-09T06:09:56.119Z,22.85
2024-04-09T06:10:56.104Z,22.93
2024-04-09T06:11:56.183Z,22.87
2024-04-09T06:12:56.094Z,22.79
2024-04-09T06:13:56.120Z,22.76
2024-04-09T06:14:56.122Z,22.75
2024-04-09T06:15:56.166Z,22.79
2024-04-09T06:16:56.124Z,22.82
2024-04-09T06:17:56.158Z,22.77
2024-04-09T06:18:56.367Z,22.80
2024-04-09T06:19:56.264Z,22.77
2024-04-09T06:20:56.156Z,22.77
2024-04-09T06:21:56.118Z,22.82
2024-04-09T06:22:56.138Z,22.77
2024-04-09T06:23:56.406Z,22.82
2024-04-09T06:24:56.119Z,22.76
2024-04-09T06:25:56.149Z,22.75
2024-04-09T06:26:56.918Z,22.83
2024-04-09T06:27:56.170Z,22.80
2024-04-09T06:28:56.157Z,22.80
2024-04-09T06:29:56.140Z,22.78
2024-04-09T06:30:56.196Z,22.83
2024-04-09T06:31:56.342Z,22.86
2024-04-09T06:32:56.284Z,22.88
2024-04-09T06:33:56.340Z,22.91
2024-04-09T06:34:56.236Z,22.83
2024-04-09T06:35:57.468Z,22.85
2024-04-09T06:36:56.284Z,22.80
2024-04-09T06:37:56.279Z,22.88
2024-04-09T06:38:56.224Z,22.89
2024-04-09T06:39:56.359Z,22.91
2024-04-09T06:40:56.259Z,22.93
2024-04-09T06:41:56.274Z,22.90
2024-04-09T06:42:56.257Z,22.90
2024-04-09T06:43:56.262Z,22.93
2024-04-09T06:44:56.239Z,22.88
2024-04-09T06:45:56.284Z,22.88
2024-04-09T06:46:56.249Z,22.86
2024-04-09T06:47:56.479Z,22.90
2024-04-09T06:48:56.424Z,22.90
2024-04-09T06:49:56.281Z,22.86
2024-04-09T06:50:56.277Z,22.93
2024-04-09T06:51:56.270Z,22.93
2024-04-09T06:52:56.273Z,22.90
2024-04-09T06:53:56.283Z,22.91
2024-04-09T06:54:56.353Z,22.89
2024-04-09T06:55:56.363Z,22.83
2024-04-09T06:56:56.300Z,22.88
2024-04-09T06:57:56.280Z,22.90
2024-04-09T06:58:56.291Z,22.91
2024-04-09T06:59:56.375Z,22.88
2024-04-09T07:00:56.358Z,22.86
2024-04-09T07:01:56.477Z,22.78
2024-04-09T07:02:56.399Z,22.81
2024-04-09T07:03:56.567Z,22.85
2024-04-09T07:04:56.278Z,22.85
2024-04-09T07:05:56.296Z,22.81
2024-04-09T07:06:56.303Z,22.77
2024-04-09T07:07:56.321Z,22.78
2024-04-09T07:08:56.335Z,22.86
2024-04-09T07:09:56.320Z,22.86
2024-04-09T07:10:56.300Z,22.85
2024-04-09T07:11:56.342Z,22.83
2024-04-09T07:12:56.312Z,22.83
2024-04-09T07:13:56.318Z,22.80
2024-04-09T07:14:56.338Z,22.83
2024-04-09T07:15:56.363Z,22.80
2024-04-09T07:16:56.371Z,22.78
2024-04-09T07:17:56.391Z,22.78
2024-04-09T07:18:56.566Z,22.73
2024-04-09T07:19:56.331Z,22.83
2024-04-09T07:20:56.328Z,22.80
2024-04-09T07:21:56.339Z,22.78
2024-04-09T07:22:56.338Z,22.80
2024-04-09T07:23:56.385Z,22.77
2024-04-09T07:24:56.344Z,22.73
2024-04-09T07:25:56.398Z,22.75
2024-04-09T07:26:56.447Z,22.72
2024-04-09T07:27:57.067Z,22.67
2024-04-09T07:28:56.498Z,22.61
2024-04-09T07:29:56.378Z,22.65
2024-04-09T07:30:56.405Z,22.62
2024-04-09T07:31:56.379Z,22.63
2024-04-09T07:32:56.410Z,22.61
2024-04-09T07:33:56.622Z,22.62
2024-04-09T07:34:56.371Z,22.61
2024-04-09T07:35:56.395Z,22.61
2024-04-09T07:36:56.572Z,22.58
2024-04-09T07:37:56.377Z,22.56
2024-04-09T07:38:56.387Z,22.51
2024-04-09T07:39:56.541Z,22.54
2024-04-09T07:40:56.386Z,22.58
2024-04-09T07:41:56.379Z,22.53
2024-04-09T07:42:56.413Z,22.58
2024-04-09T07:43:56.400Z,22.58
2024-04-09T07:44:56.391Z,22.53
2024-04-09T07:45:56.450Z,22.47
2024-04-09T07:46:56.436Z,22.42
2024-04-09T07:47:56.537Z,22.51
2024-04-09T07:48:56.847Z,22.51
2024-04-09T07:49:56.489Z,22.45
2024-04-09T07:50:56.524Z,22.48
2024-04-09T07:51:56.479Z,22.46
2024-04-09T07:52:56.503Z,22.47
2024-04-09T07:53:56.510Z,22.45
2024-04-09T07:54:57.837Z,22.45
2024-04-09T07:55:56.490Z,22.51
2024-04-09T07:56:56.523Z,22.47
2024-04-09T07:57:56.546Z,22.47
2024-04-09T07:58:56.581Z,22.45
2024-04-09T07:59:56.595Z,22.42
2024-04-09T08:00:56.804Z,22.35
2024-04-09T08:01:56.542Z,22.39
2024-04-09T08:02:58.402Z,22.37
2024-04-09T08:03:56.764Z,22.33
2024-04-09T08:04:56.759Z,22.35
2024-04-09T08:05:56.610Z,22.29
2024-04-09T08:06:56.609Z,22.29
2024-04-09T08:07:56.733Z,22.33
2024-04-09T08:08:56.853Z,22.18
2024-04-09T08:09:56.602Z,22.21
2024-04-09T08:10:56.768Z,22.18
2024-04-09T08:11:56.695Z,22.23
2024-04-09T08:12:56.593Z,22.25
2024-04-09T08:13:56.561Z,22.21
2024-04-09T08:14:56.557Z,22.16
2024-04-09T08:15:56.567Z,22.11
2024-04-09T08:16:56.551Z,22.17
2024-04-09T08:17:56.686Z,22.12
2024-04-09T08:18:56.862Z,22.17
2024-04-09T08:19:56.725Z,22.15
2024-04-09T08:20:56.595Z,22.12
2024-04-09T08:21:56.641Z,22.09
2024-04-09T08:22:56.574Z,22.07
2024-04-09T08:23:56.590Z,22.04
2024-04-09T08:24:56.592Z,22.12
2024-04-09T08:25:56.712Z,22.09
2024-04-09T08:26:56.596Z,22.14
2024-04-09T08:27:56.721Z,22.14
2024-04-09T08:28:56.708Z,22.17
2024-04-09T08:29:56.596Z,22.14
2024-04-09T08:30:56.660Z,22.12
2024-04-09T08:31:56.670Z,22.11
2024-04-09T08:32:56.847Z,22.04
2024-04-09T08:33:57.711Z,22.09
2024-04-09T08:34:56.723Z,22.07
2024-04-09T08:35:56.608Z,22.04
2024-04-09T08:36:56.713Z,22.07
2024-04-09T08:37:56.602Z,22.04
2024-04-09T08:38:56.751Z,22.06
2024-04-09T08:39:56.785Z,22.12
2024-04-09T08:40:56.730Z,22.09
2024-04-09T08:41:56.678Z,22.14
2024-04-09T08:42:59.287Z,22.11
2024-04-09T08:43:56.613Z,22.06
2024-04-09T08:44:57.446Z,22.04
2024-04-09T08:45:56.736Z,22.06
2024-04-09T08:46:56.614Z,21.98
2024-04-09T08:47:57.194Z,21.97
2024-04-09T08:48:56.871Z,21.93
2024-04-09T08:50:00.385Z,21.95
2024-04-09T08:50:57.897Z,21.98
2024-04-09T08:51:56.758Z,21.92
2024-04-09T08:52:56.851Z,21.95
2024-04-09T08:53:56.632Z,21.97
2024-04-09T08:54:56.658Z,21.97
2024-04-09T08:55:56.635Z,21.99
2024-04-09T08:56:56.650Z,21.94
2024-04-09T08:57:56.667Z,21.97
2024-04-09T08:58:57.512Z,21.86
2024-04-09T08:59:56.643Z,21.91
2024-04-09T09:00:56.876Z,21.86
2024-04-09T09:01:56.749Z,21.78
2024-04-09T09:02:56.748Z,21.72
2024-04-09T09:03:56.885Z,21.70
2024-04-09T09:04:56.849Z,21.70
2024-04-09T09:05:56.868Z,21.66
2024-04-09T09:06:56.945Z,21.56
2024-04-09T09:08:00.003Z,21.53
2024-04-09T09:08:56.984Z,21.45
2024-04-09T09:09:56.977Z,21.44
2024-04-09T09:10:56.993Z,21.39
2024-04-09T09:11:57.013Z,21.39
2024-04-09T09:12:56.999Z,21.39
2024-04-09T09:13:57.681Z,21.26
2024-04-09T09:14:56.980Z,21.30
2024-04-09T09:15:57.010Z,21.21
2024-04-09T09:16:57.084Z,21.10
2024-04-09T09:17:57.027Z,21.19
2024-04-09T09:18:56.993Z,21.20
2024-04-09T09:19:57.628Z,21.17
2024-04-09T09:20:56.990Z,21.14
2024-04-09T09:21:56.996Z,21.16
2024-04-09T09:22:57.019Z,21.11
2024-04-09T09:23:57.006Z,21.08
2024-04-09T09:24:56.991Z,21.07
2024-04-09T09:25:56.977Z,21.01
2024-04-09T09:26:57.035Z,20.99
2024-04-09T09:27:56.983Z,21.01
2024-04-09T09:28:56.986Z,20.97
2024-04-09T09:29:57.023Z,20.92
2024-04-09T09:30:57.034Z,20.94
2024-04-09T09:31:58.046Z,20.86
2024-04-09T09:32:57.097Z,20.88
2024-04-09T09:33:57.145Z,20.84
2024-04-09T09:34:58.047Z,20.83
2024-04-09T09:35:57.042Z,20.81
2024-04-09T09:36:57.008Z,20.78
2024-04-09T09:37:57.993Z,20.79
2024-04-09T09:38:57.039Z,20.76
2024-04-09T09:39:57.054Z,20.75
2024-04-09T09:40:57.015Z,20.77
2024-04-09T09:41:57.052Z,20.77
2024-04-09T09:42:57.061Z,20.76
2024-04-09T09:43:57.912Z,20.72
2024-04-09T09:44:57.048Z,20.74
2024-04-09T09:45:57.108Z,20.71
2024-04-09T09:46:57.516Z,20.87
2024-04-09T09:47:57.175Z,21.13
2024-04-09T09:48:58.190Z,21.34
2024-04-09T09:50:06.153Z,21.46
2024-04-09T09:50:57.207Z,21.17
2024-04-09T09:51:58.077Z,21.19
2024-04-09T09:52:57.307Z,21.26
2024-04-09T09:53:57.207Z,21.10
2024-04-09T09:55:01.059Z,21.12
2024-04-09T09:55:57.294Z,21.21
2024-04-09T09:56:57.192Z,21.15
2024-04-09T09:57:57.190Z,20.79
2024-04-09T09:58:57.213Z,21.16
2024-04-09T09:59:57.203Z,20.85
2024-04-09T10:00:57.379Z,21.32
2024-04-09T10:01:57.303Z,21.45
2024-04-09T10:02:57.246Z,20.94
2024-04-09T10:03:57.554Z,20.70
2024-04-09T10:04:57.469Z,21.00
2024-04-09T10:05:57.278Z,20.92
2024-04-09T10:06:59.927Z,20.42
2024-04-09T10:07:57.286Z,20.78
2024-04-09T10:08:57.328Z,20.56
2024-04-09T10:09:57.307Z,20.47
2024-04-09T10:10:57.312Z,20.39
2024-04-09T10:11:57.494Z,20.96
2024-04-09T10:12:57.446Z,20.64
2024-04-09T10:13:57.320Z,20.49
2024-04-09T10:14:57.462Z,20.67
2024-04-09T10:15:57.506Z,20.35
2024-04-09T10:16:57.331Z,20.12
2024-04-09T10:17:58.517Z,20.48
2024-04-09T10:18:58.369Z,20.23
2024-04-09T10:19:57.342Z,20.93
2024-04-09T10:20:57.428Z,20.93
2024-04-09T10:21:57.684Z,20.17
2024-04-09T10:22:57.483Z,20.66
2024-04-09T10:23:57.552Z,20.48
2024-04-09T10:24:57.637Z,19.67
2024-04-09T10:25:57.681Z,19.47
2024-04-09T10:26:57.726Z,19.78
2024-04-09T10:27:59.577Z,19.69
2024-04-09T10:28:58.006Z,19.66
2024-04-09T10:29:57.909Z,19.48
2024-04-09T10:30:57.954Z,19.63
2024-04-09T10:31:58.026Z,19.64
2024-04-09T10:32:58.215Z,19.40
2024-04-09T10:33:58.323Z,19.47
2024-04-09T10:34:58.294Z,19.61
2024-04-09T10:35:58.248Z,19.58
2024-04-09T10:36:58.400Z,19.36
2024-04-09T10:37:58.391Z,19.69
2024-04-09T10:38:58.409Z,19.54
2024-04-09T10:39:58.632Z,19.45
2024-04-09T10:40:58.562Z,19.49
2024-04-09T10:41:58.641Z,19.41
2024-04-09T10:42:58.654Z,19.26
2024-04-09T10:43:58.707Z,19.47
2024-04-09T10:44:58.778Z,19.88
2024-04-09T10:46:07.547Z,19.47
2024-04-09T10:46:59.937Z,19.54
2024-04-09T10:47:58.898Z,19.57
2024-04-09T10:48:58.881Z,19.77
2024-04-09T10:49:58.828Z,19.80
2024-04-09T10:50:58.830Z,19.61
2024-04-09T10:51:58.892Z,19.67
2024-04-09T10:52:58.828Z,19.85
2024-04-09T10:53:58.943Z,19.89
2024-04-09T10:54:59.018Z,19.81
2024-04-09T10:55:58.887Z,19.49
2024-04-09T10:56:59.056Z,19.68
2024-04-09T10:57:58.915Z,19.68
2024-04-09T10:58:58.939Z,19.52
2024-04-09T10:59:59.042Z,19.83
2024-04-09T11:00:59.304Z,19.55
2024-04-09T11:01:59.110Z,20.10
2024-04-09T11:03:00.223Z,19.96
2024-04-09T11:03:59.378Z,19.71
2024-04-09T11:04:59.508Z,19.81
2024-04-09T11:05:59.603Z,19.81
2024-04-09T11:06:59.816Z,19.00
2024-04-09T11:07:59.767Z,18.01
2024-04-09T11:09:00.071Z,17.41
2024-04-09T11:09:59.828Z,17.00
2024-04-09T11:10:59.783Z,16.93
2024-04-09T11:11:59.915Z,16.56
2024-04-09T11:12:59.790Z,16.75
2024-04-09T11:13:59.847Z,16.52
2024-04-09T11:14:59.936Z,16.46
2024-04-09T11:15:59.920Z,16.05
2024-04-09T11:17:00.005Z,16.23
2024-04-09T11:18:00.171Z,16.26
2024-04-09T11:19:00.258Z,16.18
2024-04-09T11:20:00.036Z,15.85
2024-04-09T11:21:00.132Z,16.05
2024-04-09T11:22:00.063Z,15.80
2024-04-09T11:23:00.057Z,15.74
2024-04-09T11:24:00.203Z,15.72
2024-04-09T11:25:00.127Z,15.73
2024-04-09T11:26:00.132Z,15.61
2024-04-09T11:27:00.151Z,15.57
2024-04-09T11:28:00.059Z,15.44
2024-04-09T11:29:00.344Z,15.72
2024-04-09T11:30:00.816Z,15.78
2024-04-09T11:31:00.283Z,15.93
2024-04-09T11:32:00.173Z,15.28
2024-04-09T11:33:00.369Z,15.41
2024-04-09T11:34:00.263Z,15.55
2024-04-09T11:35:00.228Z,15.47
2024-04-09T11:36:01.006Z,15.51
2024-04-09T11:37:00.188Z,15.52
2024-04-09T11:38:00.088Z,15.46
2024-04-09T11:39:00.359Z,15.46
2024-04-09T11:40:00.163Z,15.46
2024-04-09T11:41:00.110Z,15.54
2024-04-09T11:42:00.188Z,15.52
2024-04-09T11:43:00.108Z,15.36
2024-04-09T11:44:00.229Z,15.08
2024-04-09T11:45:00.232Z,15.07
2024-04-09T11:46:00.115Z,15.13
2024-04-09T11:47:00.161Z,15.33
2024-04-09T11:48:00.213Z,15.25
2024-04-09T11:49:02.217Z,15.21
2024-04-09T11:50:00.177Z,14.95
2024-04-09T11:51:00.119Z,14.97
2024-04-09T11:52:00.117Z,15.05
2024-04-09T11:53:00.103Z,15.10
2024-04-09T11:54:02.301Z,15.19
2024-04-09T11:55:00.206Z,15.02
2024-04-09T11:56:00.132Z,15.07
2024-04-09T11:57:00.153Z,14.98
2024-04-09T11:58:00.113Z,14.90
2024-04-09T11:59:00.161Z,14.58
2024-04-09T12:00:00.692Z,14.55
2024-04-09T12:01:00.194Z,14.69
2024-04-09T12:02:00.132Z,14.71
2024-04-09T12:03:00.231Z,14.61
2024-04-09T12:04:00.312Z,14.72
2024-04-09T12:05:00.346Z,14.79
2024-04-09T12:06:02.900Z,14.84
2024-04-09T12:07:00.156Z,14.85
2024-04-09T12:08:00.150Z,14.95
2024-04-09T12:09:00.205Z,15.01
2024-04-09T12:10:00.175Z,15.03
2024-04-09T12:11:00.178Z,14.88
2024-04-09T12:12:00.287Z,14.93
2024-04-09T12:13:00.157Z,14.82
2024-04-09T12:14:00.157Z,14.85
2024-04-09T12:15:00.353Z,14.90
2024-04-09T12:16:00.215Z,14.85
2024-04-09T12:17:00.148Z,14.82
2024-04-09T12:18:00.384Z,14.98
2024-04-09T12:19:00.332Z,15.06
2024-04-09T12:20:00.258Z,15.03
2024-04-09T12:21:00.224Z,15.05
2024-04-09T12:22:00.201Z,15.05
2024-04-09T12:23:00.168Z,15.01
2024-04-09T12:24:00.371Z,14.92
2024-04-09T12:25:00.270Z,14.98
2024-04-09T12:26:00.188Z,14.96
2024-04-09T12:27:00.402Z,15.00
2024-04-09T12:28:00.182Z,15.01
2024-04-09T12:29:00.189Z,14.95
2024-04-09T12:30:00.396Z,14.99
2024-04-09T12:31:00.276Z,14.93
2024-04-09T12:32:00.194Z,14.92
2024-04-09T12:33:00.320Z,14.90
2024-04-09T12:34:00.318Z,14.88
2024-04-09T12:35:00.339Z,14.93
2024-04-09T12:36:00.245Z,15.03
2024-04-09T12:37:00.211Z,15.00
2024-04-09T12:38:00.220Z,14.88
2024-04-09T12:39:00.197Z,14.95
2024-04-09T12:40:00.268Z,14.83
2024-04-09T12:41:00.211Z,14.88
2024-04-09T12:42:00.322Z,14.94
2024-04-09T12:43:00.214Z,14.91
2024-04-09T12:44:00.211Z,14.91
2024-04-09T12:45:00.295Z,14.74
2024-04-09T12:46:00.238Z,14.72
2024-04-09T12:47:00.253Z,14.80
2024-04-09T12:48:00.360Z,14.90
2024-04-09T12:49:11.087Z,14.79
2024-04-09T12:50:01.441Z,14.83
2024-04-09T12:51:00.270Z,14.86
2024-04-09T12:52:00.278Z,14.72
2024-04-09T12:53:00.271Z,14.78